Time;durP1;ratioP1;P1;durP2;ratioP2;P2;SDS_P1;SDS_P2;PMS_P1;PMS_P2;Temp;Humidity;BMP_temperature;BMP_pressure;BME280_temperature;BME280_humidity;BME280_pressure;Samples;Min_cycle;Max_cycle;Signal;HPM_P1;HPM_P2
2023/12/03 00:02:22;;;;;;;44.70;28.65;;;;;;;-0.55;100.00;101770.91;5082872;28;20033;-70
2023/12/03 00:04:50;;;;;;;44.55;28.35;;;;;;;-0.54;100.00;101770.09;5086253;28;20494;-70
2023/12/03 00:07:15;;;;;;;44.13;26.98;;;;;;;-0.51;100.00;101766.78;5078738;28;20032;-68
2023/12/03 00:09:41;;;;;;;44.47;27.42;;;;;;;-0.50;100.00;101766.88;5085572;28;20078;-69
2023/12/03 00:12:07;;;;;;;45.13;28.42;;;;;;;-0.50;100.00;101769.47;5083469;28;20028;-71
2023/12/03 00:14:34;;;;;;;45.65;28.58;;;;;;;-0.50;100.00;101764.28;5084292;28;20024;-68
2023/12/03 00:16:59;;;;;;;45.58;28.05;;;;;;;-0.47;100.00;101768.78;5084178;28;20222;-69
2023/12/03 00:19:25;;;;;;;47.35;29.15;;;;;;;-0.48;100.00;101767.91;5083443;28;20025;-70
2023/12/03 00:21:50;;;;;;;46.63;29.13;;;;;;;-0.45;100.00;101772.38;5085415;28;20032;-68
2023/12/03 00:24:16;;;;;;;46.58;28.80;;;;;;;-0.42;100.00;101773.47;5082368;28;20067;-68
2023/12/03 00:26:41;;;;;;;45.80;28.27;;;;;;;-0.38;100.00;101769.38;5085558;28;20033;-68
2023/12/03 00:29:07;;;;;;;45.63;27.25;;;;;;;-0.34;100.00;101767.88;5081700;28;20085;-69
2023/12/03 00:31:34;;;;;;;45.15;27.92;;;;;;;-0.31;100.00;101770.66;5084243;28;20117;-68
2023/12/03 00:33:59;;;;;;;45.30;28.48;;;;;;;-0.29;100.00;101776.84;5083836;28;20031;-68
2023/12/03 00:36:25;;;;;;;45.50;28.05;;;;;;;-0.27;100.00;101770.06;5082625;28;20048;-68
2023/12/03 00:38:50;;;;;;;41.55;26.65;;;;;;;-0.21;100.00;101773.91;5085300;28;20423;-67
2023/12/03 00:41:15;;;;;;;44.13;27.52;;;;;;;-0.22;100.00;101768.63;5081858;28;20024;-69
2023/12/03 00:43:40;;;;;;;42.17;27.13;;;;;;;-0.20;100.00;101778.31;5085142;28;20101;-67
2023/12/03 00:46:06;;;;;;;41.50;26.73;;;;;;;-0.19;100.00;101776.63;5083185;28;20024;-68
2023/12/03 00:48:31;;;;;;;41.65;27.42;;;;;;;-0.11;100.00;101771.91;5083742;28;20024;-70
2023/12/03 00:50:57;;;;;;;43.75;26.80;;;;;;;-0.15;100.00;101773.41;5083954;28;20032;-68
2023/12/03 00:53:22;;;;;;;41.35;27.10;;;;;;;-0.15;100.00;101768.22;5082199;28;20555;-68
2023/12/03 00:55:47;;;;;;;43.08;27.83;;;;;;;-0.14;100.00;101775.22;5083299;28;20028;-69
2023/12/03 00:58:13;;;;;;;40.28;26.70;;;;;;;-0.13;100.00;101771.84;5081523;28;20031;-67
2023/12/03 01:00:38;;;;;;;41.40;27.63;;;;;;;-0.12;100.00;101773.59;5084385;28;20130;-70
2023/12/03 01:03:03;;;;;;;42.78;27.80;;;;;;;-0.13;100.00;101782.22;5083060;28;20058;-67
2023/12/03 01:05:29;;;;;;;41.63;27.67;;;;;;;-0.11;100.00;101782.31;5083053;28;20028;-67
2023/12/03 01:07:54;;;;;;;43.15;29.08;;;;;;;-0.13;100.00;101782.22;5083947;28;20063;-68
2023/12/03 01:10:20;;;;;;;41.70;28.13;;;;;;;-0.11;100.00;101787.53;5081493;28;20032;-71
2023/12/03 01:12:45;;;;;;;40.63;28.45;;;;;;;-0.12;100.00;101789.19;5085109;28;20028;-66
2023/12/03 01:15:10;;;;;;;41.40;28.50;;;;;;;-0.13;100.00;101787.44;5081683;28;20028;-67
2023/12/03 01:17:36;;;;;;;42.08;28.13;;;;;;;-0.14;100.00;101790.81;5083933;28;20055;-67
2023/12/03 01:20:01;;;;;;;42.58;29.60;;;;;;;-0.16;100.00;101787.25;5083379;28;20055;-66
2023/12/03 01:22:26;;;;;;;42.88;28.42;;;;;;;-0.15;100.00;101798.53;5082185;28;20028;-67
2023/12/03 01:24:52;;;;;;;42.60;30.08;;;;;;;-0.16;100.00;101802.84;5084193;28;20114;-67
2023/12/03 01:27:17;;;;;;;42.63;28.77;;;;;;;-0.15;100.00;101799.41;5081336;28;20052;-67
2023/12/03 01:29:43;;;;;;;41.67;28.52;;;;;;;-0.16;100.00;101801.91;5084370;28;20544;-66
2023/12/03 01:32:08;;;;;;;42.35;28.80;;;;;;;-0.18;100.00;101799.22;5081849;28;20041;-67
2023/12/03 01:34:33;;;;;;;42.25;28.80;;;;;;;-0.21;100.00;101799.91;5083271;28;20115;-73
2023/12/03 01:36:59;;;;;;;42.33;28.23;;;;;;;-0.21;100.00;101797.31;5083030;28;20494;-70
2023/12/03 01:39:24;;;;;;;40.95;28.40;;;;;;;-0.27;100.00;101809.03;5081837;28;20029;-69
2023/12/03 01:41:53;;;;;;;41.72;29.05;;;;;;;-0.33;100.00;101804.34;5084382;28;20063;-67
2023/12/03 01:44:18;;;;;;;41.92;28.23;;;;;;;-0.32;100.00;101797.44;5080877;28;20093;-67
2023/12/03 01:46:48;;;;;;;41.30;28.08;;;;;;;-0.30;100.00;101806.25;5084489;28;20029;-67
2023/12/03 01:49:13;;;;;;;42.65;29.02;;;;;;;-0.33;100.00;101803.47;5081177;28;20475;-68
2023/12/03 01:51:39;;;;;;;42.33;28.85;;;;;;;-0.32;100.00;101806.16;5083499;28;20036;-68
2023/12/03 01:54:05;;;;;;;40.75;27.83;;;;;;;-0.33;100.00;101803.47;5082110;28;20069;-72
2023/12/03 01:56:30;;;;;;;41.25;28.13;;;;;;;-0.33;100.00;101798.25;5082582;28;20056;-68
2023/12/03 01:58:57;;;;;;;41.90;29.08;;;;;;;-0.32;100.00;101805.25;5082076;28;20467;-67
2023/12/03 02:01:22;;;;;;;44.38;30.75;;;;;;;-0.28;100.00;101809.84;5081384;28;20044;-68
2023/12/03 02:03:47;;;;;;;44.67;30.55;;;;;;;-0.25;100.00;101812.63;5084587;28;20040;-68
2023/12/03 02:06:13;;;;;;;45.15;31.67;;;;;;;-0.26;100.00;101808.22;5082855;28;20056;-67
2023/12/03 02:08:39;;;;;;;45.80;31.83;;;;;;;-0.29;100.00;101806.34;5086423;28;20070;-67
2023/12/03 02:11:06;;;;;;;45.55;32.63;;;;;;;-0.31;100.00;101807.03;5086114;28;20035;-70
2023/12/03 02:13:36;;;;;;;47.53;34.15;;;;;;;-0.34;100.00;101809.44;5086190;28;20041;-70
2023/12/03 02:16:01;;;;;;;47.22;33.45;;;;;;;-0.36;100.00;101810.25;5086626;28;20051;-70
2023/12/03 02:18:27;;;;;;;46.97;34.10;;;;;;;-0.34;100.00;101806.84;5085644;28;20059;-74
2023/12/03 02:20:54;;;;;;;46.80;33.55;;;;;;;-0.34;100.00;101809.44;5086322;28;20031;-73
2023/12/03 02:23:20;;;;;;;47.05;34.17;;;;;;;-0.37;100.00;101812.75;5084668;28;20111;-73
2023/12/03 02:25:46;;;;;;;45.92;33.67;;;;;;;-0.33;100.00;101821.66;5088003;28;20088;-74
2023/12/03 02:28:11;;;;;;;47.83;33.92;;;;;;;-0.33;100.00;101819.94;5084848;28;20039;-72
2023/12/03 02:30:37;;;;;;;47.40;33.95;;;;;;;-0.29;100.00;101816.75;5087227;28;20021;-73
2023/12/03 02:33:02;;;;;;;47.35;33.45;;;;;;;-0.30;100.00;101821.84;5085899;28;20387;-73
2023/12/03 02:35:28;;;;;;;46.70;33.10;;;;;;;-0.30;100.00;101820.13;5085220;28;20074;-72
2023/12/03 02:37:53;;;;;;;45.55;30.55;;;;;;;-0.25;100.00;101818.75;5087492;28;20115;-72
2023/12/03 02:40:19;;;;;;;44.08;30.25;;;;;;;-0.25;100.00;101817.81;5084204;28;20016;-73
2023/12/03 02:42:44;;;;;;;43.58;31.45;;;;;;;-0.23;100.00;101817.13;5087584;28;20036;-74
2023/12/03 02:45:10;;;;;;;43.17;29.52;;;;;;;-0.20;100.00;101819.03;5084940;28;20032;-72
2023/12/03 02:47:35;;;;;;;41.78;29.30;;;;;;;-0.24;100.00;101819.63;5086128;28;20032;-72
2023/12/03 02:50:01;;;;;;;43.42;29.35;;;;;;;-0.24;100.00;101812.72;5086331;28;20087;-72
2023/12/03 02:52:26;;;;;;;42.60;28.83;;;;;;;-0.21;100.00;101820.72;5085306;28;20379;-72
2023/12/03 02:54:51;;;;;;;41.05;29.00;;;;;;;-0.20;100.00;101817.31;5087128;28;20086;-73
2023/12/03 02:57:17;;;;;;;40.72;27.23;;;;;;;-0.20;100.00;101819.03;5084064;28;20040;-72
2023/12/03 02:59:42;;;;;;;40.33;27.20;;;;;;;-0.18;100.00;101817.41;5086805;28;20036;-74
2023/12/03 03:02:07;;;;;;;41.28;27.05;;;;;;;-0.23;100.00;101817.13;5085140;28;20028;-73
2023/12/03 03:04:33;;;;;;;40.83;27.58;;;;;;;-0.26;100.00;101823.81;5085775;28;20087;-73
2023/12/03 03:06:58;;;;;;;40.40;27.45;;;;;;;-0.33;100.00;101814.75;5086059;28;20028;-73
2023/12/03 03:09:23;;;;;;;41.42;27.52;;;;;;;-0.45;100.00;101817.47;5084179;28;20383;-72
2023/12/03 03:11:49;;;;;;;42.63;29.23;;;;;;;-0.53;100.00;101818.66;5087183;28;20479;-73
2023/12/03 03:14:14;;;;;;;41.92;27.92;;;;;;;-0.55;100.00;101817.66;5082480;28;20360;-73
2023/12/03 03:16:39;;;;;;;42.05;28.48;;;;;;;-0.63;100.00;101821.44;5085937;28;20482;-72
2023/12/03 03:19:05;;;;;;;41.85;28.33;;;;;;;-0.69;100.00;101827.13;5084587;28;20020;-73
2023/12/03 03:21:36;;;;;;;43.35;28.85;;;;;;;-0.80;100.00;101817.75;5085024;28;20029;-72
2023/12/03 03:24:02;;;;;;;44.33;29.05;;;;;;;-0.80;100.00;101817.75;5085221;28;20032;-72
2023/12/03 03:26:27;;;;;;;44.50;29.52;;;;;;;-0.82;100.00;101817.63;5084609;28;20167;-73
2023/12/03 03:28:53;;;;;;;44.50;29.60;;;;;;;-0.85;100.00;101825.22;5086399;28;20154;-73
2023/12/03 03:31:18;;;;;;;43.40;29.13;;;;;;;-0.96;100.00;101826.19;5082092;28;20387;-71
2023/12/03 03:33:43;;;;;;;44.22;30.30;;;;;;;-0.94;100.00;101824.63;5086618;28;20043;-72
2023/12/03 03:36:09;;;;;;;44.22;30.15;;;;;;;-1.04;100.00;101823.09;5083851;28;20048;-73
2023/12/03 03:38:34;;;;;;;45.22;30.95;;;;;;;-1.08;100.00;101816.81;5085551;28;20040;-70
2023/12/03 03:41:00;;;;;;;44.60;30.27;;;;;;;-1.08;100.00;101818.50;5085516;28;20024;-70
2023/12/03 03:43:25;;;;;;;46.03;30.45;;;;;;;-1.11;100.00;101823.50;5083608;28;20025;-70
2023/12/03 03:45:50;;;;;;;46.55;31.65;;;;;;;-1.08;100.00;101827.22;5086612;28;20040;-68
2023/12/03 03:48:16;;;;;;;48.10;31.30;;;;;;;-1.10;100.00;101826.19;5078991;28;20020;-70
2023/12/03 03:50:41;;;;;;;45.05;29.77;;;;;;;-1.08;100.00;101824.63;5085740;28;20465;-68
2023/12/03 03:53:06;;;;;;;45.80;31.00;;;;;;;-1.10;100.00;101828.78;5084485;28;20597;-68
2023/12/03 03:55:31;;;;;;;45.72;30.00;;;;;;;-1.16;100.00;101835.28;5084289;28;20387;-68
2023/12/03 03:57:57;;;;;;;45.28;30.60;;;;;;;-1.25;100.00;101828.66;5085565;28;20028;-68
2023/12/03 04:00:22;;;;;;;43.83;29.45;;;;;;;-1.30;100.00;101843.00;5083374;28;20041;-68
2023/12/03 04:02:48;;;;;;;46.95;30.33;;;;;;;-1.27;100.00;101847.50;5086103;28;20028;-68
2023/12/03 04:05:13;;;;;;;46.47;30.85;;;;;;;-1.28;100.00;101843.09;5082927;28;20349;-67
2023/12/03 04:07:38;;;;;;;46.58;31.30;;;;;;;-1.41;100.00;101839.69;5085435;28;20040;-67
2023/12/03 04:10:05;;;;;;;46.30;30.88;;;;;;;-1.48;100.00;101832.28;5084107;28;20036;-67
2023/12/03 04:12:30;;;;;;;47.00;31.00;;;;;;;-1.58;100.00;101835.91;5083890;28;20032;-71
2023/12/03 04:14:55;;;;;;;46.97;30.73;;;;;;;-1.59;100.00;101835.81;5085293;28;20115;-67
2023/12/03 04:17:21;;;;;;;46.17;31.42;;;;;;;-1.61;100.00;101837.41;5082344;28;20056;-67
2023/12/03 04:19:46;;;;;;;48.28;31.58;;;;;;;-1.61;100.00;101829.63;5078378;28;20023;-68
2023/12/03 04:22:11;;;;;;;48.47;31.30;;;;;;;-1.65;100.00;101836.28;5067161;28;20082;-67
2023/12/03 04:24:37;;;;;;;48.88;31.65;;;;;;;-1.69;100.00;101841.16;5082208;28;20073;-67
2023/12/03 04:27:03;;;;;;;48.55;31.83;;;;;;;-1.71;100.00;101846.22;5083864;28;20073;-69
2023/12/03 04:29:28;;;;;;;49.22;31.70;;;;;;;-1.73;100.00;101854.69;5084507;28;20115;-68
2023/12/03 04:31:53;;;;;;;47.65;31.35;;;;;;;-1.70;100.00;101844.53;5082402;28;20495;-68
2023/12/03 04:34:19;;;;;;;48.97;32.38;;;;;;;-1.78;100.00;101842.31;5085530;28;20418;-68
2023/12/03 04:36:44;;;;;;;48.70;32.03;;;;;;;-1.78;100.00;101847.50;5082089;28;20057;-67
2023/12/03 04:39:10;;;;;;;48.38;32.15;;;;;;;-1.78;100.00;101850.09;5084440;28;20375;-68
2023/12/03 04:41:36;;;;;;;49.33;32.47;;;;;;;-1.83;100.00;101854.06;5083554;28;20081;-68
2023/12/03 04:44:02;;;;;;;47.92;32.40;;;;;;;-1.90;100.00;101846.63;5083301;28;20024;-68
2023/12/03 04:46:28;;;;;;;49.08;32.15;;;;;;;-1.88;100.00;101852.81;5084292;28;20106;-69
2023/12/03 04:48:53;;;;;;;48.90;30.70;;;;;;;-1.85;100.00;101854.72;5081108;28;20024;-71
2023/12/03 04:51:18;;;;;;;48.50;32.05;;;;;;;-1.87;100.00;101862.41;5085131;28;20034;-71
2023/12/03 04:53:44;;;;;;;50.38;31.95;;;;;;;-1.95;100.00;101854.09;5082010;28;20115;-72
2023/12/03 04:56:09;;;;;;;50.90;32.45;;;;;;;-1.99;100.00;101856.34;5084021;28;20032;-71
2023/12/03 04:58:35;;;;;;;48.90;32.60;;;;;;;-2.02;100.00;101858.75;5083064;28;20016;-73
2023/12/03 05:01:00;;;;;;;50.13;32.25;;;;;;;-2.07;100.00;101857.50;5082974;28;20033;-73
2023/12/03 05:03:26;;;;;;;51.03;32.45;;;;;;;-2.11;100.00;101851.19;5084428;28;20479;-73
2023/12/03 05:05:51;;;;;;;52.40;33.13;;;;;;;-2.12;100.00;101868.41;5081414;28;20025;-73
2023/12/03 05:08:17;;;;;;;53.42;33.22;;;;;;;-2.17;100.00;101861.09;5077591;28;20051;-73
2023/12/03 05:10:43;;;;;;;54.22;33.92;;;;;;;-2.16;100.00;101863.81;5084310;28;20024;-73
2023/12/03 05:13:08;;;;;;;50.67;33.15;;;;;;;-2.20;100.00;101866.06;5082548;28;20032;-71
2023/12/03 05:15:34;;;;;;;57.38;35.33;;;;;;;-2.26;100.00;101870.81;5081936;28;20070;-73
2023/12/03 05:17:59;;;;;;;54.38;34.50;;;;;;;-2.23;100.00;101871.91;5083657;28;20101;-72
2023/12/03 05:20:25;;;;;;;55.17;35.00;;;;;;;-2.27;100.00;101869.94;5080424;28;20029;-73
2023/12/03 05:22:51;;;;;;;57.05;36.85;;;;;;;-2.25;100.00;101878.69;5084918;28;20039;-72
2023/12/03 05:25:18;;;;;;;58.03;38.40;;;;;;;-2.28;100.00;101874.19;5081459;28;20035;-71
2023/12/03 05:27:44;;;;;;;58.60;38.90;;;;;;;-2.31;100.00;101871.38;5084151;28;20028;-73
2023/12/03 05:30:10;;;;;;;59.40;38.55;;;;;;;-2.35;100.00;101876.22;5082562;28;20037;-73
2023/12/03 05:32:35;;;;;;;58.63;38.72;;;;;;;-2.34;100.00;101878.03;5083026;28;20028;-71
2023/12/03 05:35:01;;;;;;;57.78;38.13;;;;;;;-2.35;100.00;101864.16;5083012;28;20413;-72
2023/12/03 05:37:28;;;;;;;56.85;37.28;;;;;;;-2.39;100.00;101863.84;5081890;28;20154;-73
2023/12/03 05:39:54;;;;;;;59.55;38.50;;;;;;;-2.43;100.00;101864.41;5083866;28;20063;-71
2023/12/03 05:42:20;;;;;;;56.67;36.15;;;;;;;-2.42;100.00;101879.16;5081063;28;20044;-71
2023/12/03 05:44:46;;;;;;;58.15;36.97;;;;;;;-2.51;100.00;101875.09;5084486;28;20039;-72
2023/12/03 05:47:12;;;;;;;55.30;35.50;;;;;;;-2.55;100.00;101875.69;5081550;28;20028;-73
2023/12/03 05:49:40;;;;;;;58.15;35.85;;;;;;;-2.51;100.00;101880.28;5083120;28;20115;-71
2023/12/03 05:52:06;;;;;;;57.35;36.67;;;;;;;-2.56;100.00;101876.47;5082598;28;20031;-72
2023/12/03 05:54:31;;;;;;;57.25;35.30;;;;;;;-2.59;100.00;101876.22;5082106;28;20037;-72
2023/12/03 05:56:56;;;;;;;56.95;34.22;;;;;;;-2.60;100.00;101877.00;5083939;28;20419;-71
2023/12/03 05:59:25;;;;;;;54.60;33.47;;;;;;;-2.58;100.00;101875.41;5080837;28;20048;-73
2023/12/03 06:01:51;;;;;;;55.15;33.67;;;;;;;-2.52;100.00;101882.75;5077416;28;20040;-73
2023/12/03 06:04:17;;;;;;;53.60;33.67;;;;;;;-2.55;100.00;101877.34;5084389;28;20024;-70
2023/12/03 06:06:43;;;;;;;54.42;33.38;;;;;;;-2.55;100.00;101880.84;5081284;28;20033;-73
2023/12/03 06:09:09;;;;;;;53.70;33.00;;;;;;;-2.59;100.00;101886.59;5083158;28;20094;-72
2023/12/03 06:11:35;;;;;;;54.40;32.42;;;;;;;-2.58;100.00;101888.38;5081527;28;20016;-73
2023/12/03 06:14:04;;;;;;;54.55;33.55;;;;;;;-2.57;100.00;101890.19;5081963;28;20107;-73
2023/12/03 06:16:30;;;;;;;53.78;32.17;;;;;;;-2.60;100.00;101895.13;5083102;28;20109;-72
2023/12/03 06:18:56;;;;;;;54.47;32.03;;;;;;;-2.62;100.00;101888.97;5081222;28;20444;-73
2023/12/03 06:21:22;;;;;;;53.13;31.98;;;;;;;-2.64;100.00;101893.09;5084076;28;20077;-73
2023/12/03 06:23:47;;;;;;;53.40;32.10;;;;;;;-2.66;100.00;101903.34;5080548;28;20028;-73
2023/12/03 06:26:13;;;;;;;51.10;31.65;;;;;;;-2.67;100.00;101903.22;5083549;28;20047;-71
2023/12/03 06:28:38;;;;;;;53.33;31.67;;;;;;;-2.65;100.00;101902.56;5081754;28;20032;-73
2023/12/03 06:31:07;;;;;;;53.65;31.83;;;;;;;-2.64;100.00;101911.22;5082273;28;20032;-72
2023/12/03 06:33:33;;;;;;;53.80;31.70;;;;;;;-2.60;100.00;101900.31;5082836;28;20177;-73
2023/12/03 06:35:58;;;;;;;51.42;31.25;;;;;;;-2.54;100.00;101890.41;5080954;28;20082;-71
2023/12/03 06:38:24;;;;;;;51.05;31.27;;;;;;;-2.52;100.00;101893.09;5083575;28;20119;-73
2023/12/03 06:40:49;;;;;;;51.00;30.92;;;;;;;-2.54;100.00;101890.41;5080875;28;20035;-72
2023/12/03 06:43:15;;;;;;;51.50;31.23;;;;;;;-2.54;100.00;101887.81;5083419;28;20497;-74
2023/12/03 06:45:40;;;;;;;53.90;32.33;;;;;;;-2.59;100.00;101881.41;5081385;28;20094;-74
2023/12/03 06:48:06;;;;;;;53.13;32.25;;;;;;;-2.64;100.00;101882.75;5082389;28;20467;-73
2023/12/03 06:50:32;;;;;;;52.08;30.90;;;;;;;-2.65;100.00;101891.28;5082499;28;20542;-74
2023/12/03 06:52:57;;;;;;;51.95;31.20;;;;;;;-2.66;100.00;101892.09;5082244;28;20056;-74
2023/12/03 06:55:22;;;;;;;50.72;31.00;;;;;;;-2.70;100.00;101892.66;5087861;28;20439;-70
2023/12/03 06:57:48;;;;;;;50.92;31.00;;;;;;;-2.74;100.00;101886.31;5078674;28;20044;-74
2023/12/03 07:00:13;;;;;;;50.92;31.08;;;;;;;-2.78;100.00;101891.16;5086898;28;20036;-74
2023/12/03 07:02:39;;;;;;;51.25;30.85;;;;;;;-2.78;100.00;101884.31;5085255;28;20042;-72
2023/12/03 07:05:05;;;;;;;50.10;30.98;;;;;;;-2.85;100.00;101884.66;5085719;28;20043;-74
2023/12/03 07:07:30;;;;;;;51.28;31.15;;;;;;;-2.87;100.00;101884.53;5086327;28;20024;-71
2023/12/03 07:09:55;;;;;;;52.50;31.98;;;;;;;-2.88;100.00;101882.72;5082837;28;20032;-74
2023/12/03 07:12:21;;;;;;;51.88;31.45;;;;;;;-2.83;100.00;101883.06;5087044;28;20498;-72
2023/12/03 07:14:46;;;;;;;50.90;31.27;;;;;;;-2.87;100.00;101886.19;5083924;28;20102;-70
2023/12/03 07:17:12;;;;;;;54.90;32.72;;;;;;;-2.82;100.00;101896.13;5086119;28;20055;-74
2023/12/03 07:19:45;;;;;;;52.47;31.42;;;;;;;-2.77;100.00;101895.56;5083691;28;20460;-73
2023/12/03 07:22:10;;;;;;;50.15;31.05;;;;;;;-2.73;100.00;101895.00;5086149;28;20099;-68
2023/12/03 07:24:41;;;;;;;52.67;31.58;;;;;;;-2.69;100.00;101904.81;5085116;28;20438;-71
2023/12/03 07:27:07;;;;;;;50.83;30.83;;;;;;;-2.75;100.00;101899.16;5085161;28;20036;-71
2023/12/03 07:29:33;;;;;;;51.08;31.75;;;;;;;-2.70;100.00;101905.59;5085617;28;20071;-71
2023/12/03 07:31:58;;;;;;;50.75;31.48;;;;;;;-2.72;100.00;101899.38;5083920;28;20025;-72
2023/12/03 07:34:25;;;;;;;50.88;31.50;;;;;;;-2.69;100.00;101904.81;5086476;28;20069;-71
2023/12/03 07:36:51;;;;;;;52.40;31.40;;;;;;;-2.66;100.00;101905.03;5083301;28;20056;-71
2023/12/03 07:39:16;;;;;;;50.92;31.55;;;;;;;-2.64;100.00;101906.03;5086628;28;20032;-70
2023/12/03 07:41:42;;;;;;;48.58;29.40;;;;;;;-2.63;100.00;101910.44;5083846;28;20464;-71
2023/12/03 07:44:07;;;;;;;49.95;29.52;;;;;;;-2.61;100.00;101914.03;5085245;28;20029;-73
2023/12/03 07:46:32;;;;;;;48.95;29.95;;;;;;;-2.57;100.00;101912.59;5082015;28;20538;-72
2023/12/03 07:48:58;;;;;;;46.33;29.33;;;;;;;-2.55;100.00;101906.75;5085773;28;20443;-71
2023/12/03 07:51:23;;;;;;;48.13;29.65;;;;;;;-2.54;100.00;101913.72;5083106;28;20029;-72
2023/12/03 07:53:49;;;;;;;47.20;28.85;;;;;;;-2.48;100.00;101901.22;5086198;28;20032;-71
2023/12/03 07:56:14;;;;;;;46.40;28.38;;;;;;;-2.46;100.00;101904.84;5083290;28;20043;-72
2023/12/03 07:58:39;;;;;;;46.80;28.92;;;;;;;-2.41;100.00;101901.69;5083838;28;20028;-71
2023/12/03 08:01:05;;;;;;;46.85;28.55;;;;;;;-2.39;100.00;101900.09;5083308;28;20036;-71
2023/12/03 08:03:31;;;;;;;45.90;28.42;;;;;;;-2.37;100.00;101906.31;5083669;28;20054;-73
2023/12/03 08:05:58;;;;;;;45.22;27.65;;;;;;;-2.38;100.00;101904.50;5085850;28;20394;-71
2023/12/03 08:08:23;;;;;;;46.17;27.85;;;;;;;-2.35;100.00;101908.19;5082931;28;20028;-76
2023/12/03 08:10:49;;;;;;;46.95;28.63;;;;;;;-2.34;100.00;101910.00;5077503;28;20032;-75
2023/12/03 08:13:14;;;;;;;44.70;27.00;;;;;;;-2.30;100.00;101921.47;5085285;28;20600;-76
2023/12/03 08:15:39;;;;;;;44.03;27.40;;;;;;;-2.29;100.00;101919.03;5083774;28;20039;-76
2023/12/03 08:18:05;;;;;;;45.45;27.58;;;;;;;-2.24;100.00;101927.13;5084139;28;20067;-76
2023/12/03 08:20:30;;;;;;;43.25;26.33;;;;;;;-2.20;100.00;101926.59;5084954;28;20020;-75
2023/12/03 08:22:55;;;;;;;45.10;26.42;;;;;;;-2.13;100.00;101925.31;5082542;28;20111;-71
2023/12/03 08:25:21;;;;;;;43.65;26.15;;;;;;;-2.08;100.00;101925.66;5086235;28;20028;-72
2023/12/03 08:27:46;;;;;;;42.88;26.85;;;;;;;-2.01;100.00;101925.31;5082632;28;20025;-71
2023/12/03 08:30:12;;;;;;;42.95;26.02;;;;;;;-1.91;100.00;101917.41;5083549;28;20032;-71
2023/12/03 08:32:37;;;;;;;41.45;25.05;;;;;;;-1.75;100.00;101922.00;5065985;28;20028;-73
2023/12/03 08:35:03;;;;;;;40.67;24.83;;;;;;;-1.56;100.00;101925.91;5083107;28;20155;-71
2023/12/03 08:37:28;;;;;;;40.80;24.27;;;;;;;-1.41;100.00;101927.88;5085131;28;20114;-71
2023/12/03 08:39:54;;;;;;;41.70;24.70;;;;;;;-1.25;100.00;101928.97;5082462;28;20035;-71
2023/12/03 08:42:19;;;;;;;39.75;23.98;;;;;;;-1.09;100.00;101936.13;5085407;28;20032;-75
2023/12/03 08:44:45;;;;;;;37.28;22.65;;;;;;;-1.02;100.00;101934.81;5082348;28;20025;-72
2023/12/03 08:47:11;;;;;;;39.00;23.63;;;;;;;-0.89;100.00;101935.78;5084286;28;20033;-67
2023/12/03 08:49:36;;;;;;;38.10;22.58;;;;;;;-0.68;100.00;101937.09;5082295;28;20367;-68
2023/12/03 08:52:02;;;;;;;38.03;23.15;;;;;;;-0.54;100.00;101944.13;5082870;28;20033;-68
2023/12/03 08:54:27;;;;;;;37.70;23.30;;;;;;;-0.43;100.00;101939.66;5084667;28;20032;-68
2023/12/03 08:56:52;;;;;;;34.90;20.30;;;;;;;-0.25;100.00;101945.16;5081664;28;20033;-68
2023/12/03 08:59:19;;;;;;;35.45;21.58;;;;;;;-0.09;100.00;101944.47;5067115;28;20028;-68
2023/12/03 09:01:45;;;;;;;36.25;21.63;;;;;;;-0.05;100.00;101944.78;5082121;28;20034;-68
2023/12/03 09:04:12;;;;;;;35.22;20.90;;;;;;;-0.26;100.00;101935.56;5083744;28;20112;-68
2023/12/03 09:06:38;;;;;;;36.92;21.88;;;;;;;-0.48;100.00;101944.56;5083015;28;20078;-67
2023/12/03 09:09:04;;;;;;;34.75;20.63;;;;;;;-0.63;100.00;101943.53;5082757;28;20036;-67
2023/12/03 09:11:29;;;;;;;35.33;21.05;;;;;;;-0.71;100.00;101943.03;5084296;28;20043;-68
2023/12/03 09:13:54;;;;;;;34.20;20.33;;;;;;;-0.83;100.00;101943.09;5081738;28;20047;-68
2023/12/03 09:16:20;;;;;;;35.17;20.65;;;;;;;-0.77;100.00;101950.38;5084423;28;20094;-67
2023/12/03 09:18:46;;;;;;;35.10;20.58;;;;;;;-0.83;100.00;101947.38;5080630;28;20021;-68
2023/12/03 09:21:12;;;;;;;35.45;20.95;;;;;;;-0.84;100.00;101954.28;5083877;28;20028;-67
2023/12/03 09:23:38;;;;;;;36.05;21.60;;;;;;;-0.80;100.00;101943.31;5082727;28;20469;-67
2023/12/03 09:26:04;;;;;;;35.65;21.45;;;;;;;-0.80;100.00;101948.50;5082403;28;20017;-68
2023/12/03 09:28:30;;;;;;;34.17;19.90;;;;;;;-0.76;100.00;101954.78;5084067;28;20028;-69
2023/12/03 09:30:59;;;;;;;35.22;21.45;;;;;;;-0.75;100.00;101959.19;5081176;28;20391;-69
2023/12/03 09:33:27;;;;;;;34.97;21.42;;;;;;;-0.75;100.00;101948.81;5084932;28;20165;-68
2023/12/03 09:35:56;;;;;;;34.65;20.52;;;;;;;-0.74;100.00;101946.31;5077349;28;20068;-68
2023/12/03 09:38:23;;;;;;;35.13;20.95;;;;;;;-0.71;100.00;101938.72;5077522;28;20102;-68
2023/12/03 09:40:50;;;;;;;33.67;20.38;;;;;;;-0.67;100.00;101938.91;5084195;28;20403;-68
2023/12/03 09:43:20;;;;;;;36.20;21.25;;;;;;;-0.65;100.00;101938.22;5082035;28;20029;-68
2023/12/03 09:45:46;;;;;;;33.22;19.65;;;;;;;-0.61;100.00;101945.44;5083867;28;20497;-67
2023/12/03 09:48:12;;;;;;;33.83;20.55;;;;;;;-0.55;100.00;101937.16;5082061;28;20035;-68
2023/12/03 09:50:42;;;;;;;34.58;19.17;;;;;;;-0.44;100.00;101930.06;5082988;28;20105;-68
2023/12/03 09:53:10;;;;;;;32.85;19.08;;;;;;;-0.36;100.00;101934.09;5082508;28;20089;-67
2023/12/03 09:55:38;;;;;;;31.92;18.60;;;;;;;-0.31;100.00;101932.66;5082314;28;20036;-68
2023/12/03 09:58:04;;;;;;;31.73;19.00;;;;;;;-0.26;100.00;101931.28;5083296;28;20031;-70
2023/12/03 10:00:31;;;;;;;33.42;19.02;;;;;;;-0.20;100.00;101920.41;5081568;28;20124;-71
2023/12/03 10:02:57;;;;;;;33.50;19.63;;;;;;;-0.22;100.00;101925.50;5084060;28;20119;-71
2023/12/03 10:05:22;;;;;;;33.38;19.38;;;;;;;-0.21;100.00;101922.06;5081045;28;20121;-71
2023/12/03 10:07:51;;;;;;;34.00;19.60;;;;;;;-0.19;100.00;101929.97;5083886;28;20126;-71
2023/12/03 10:10:19;;;;;;;32.95;18.75;;;;;;;-0.19;100.00;101927.38;5081145;28;20028;-71
2023/12/03 10:12:47;;;;;;;34.13;19.70;;;;;;;-0.16;100.00;101922.41;5083555;28;20497;-73
2023/12/03 10:15:13;;;;;;;33.58;18.98;;;;;;;-0.17;100.00;101915.41;5081807;28;20028;-71
2023/12/03 10:17:38;;;;;;;32.88;19.08;;;;;;;-0.14;100.00;101912.09;5082482;28;20033;-70
2023/12/03 10:20:26;;;;;;;32.30;18.83;;;;;;;-0.08;100.00;101917.69;5083076;28;20490;-72
2023/12/03 10:22:52;;;;;;;31.38;18.58;;;;;;;-0.07;100.00;101910.00;5076685;28;20387;-71
2023/12/03 10:25:27;;;;;;;33.03;18.38;;;;;;;-0.03;100.00;101909.41;5083916;28;20628;-71
2023/12/03 10:27:55;;;;;;;31.85;17.83;;;;;;;0.01;100.00;101910.47;5079791;28;20480;-71
2023/12/03 10:30:21;;;;;;;31.40;18.20;;;;;;;0.06;100.00;101913.34;5080483;28;20020;-71
2023/12/03 10:32:46;;;;;;;32.70;18.50;;;;;;;0.08;100.00;101897.06;5087574;28;20032;-71
2023/12/03 10:35:11;;;;;;;31.95;18.52;;;;;;;0.19;100.00;101905.56;5083976;28;20032;-71
2023/12/03 10:37:37;;;;;;;31.52;17.92;;;;;;;0.24;100.00;101903.25;5086054;28;20499;-73
2023/12/03 10:40:03;;;;;;;31.83;17.70;;;;;;;0.34;100.00;101892.63;5087149;28;20046;-71
2023/12/03 10:42:33;;;;;;;30.80;16.60;;;;;;;0.46;100.00;101889.88;5084922;28;20378;-72
2023/12/03 10:45:05;;;;;;;31.80;18.17;;;;;;;0.53;100.00;101881.66;5087378;28;20032;-67
2023/12/03 10:47:31;;;;;;;30.02;16.77;;;;;;;0.65;100.00;101887.59;5085030;28;20031;-68
2023/12/03 10:49:57;;;;;;;30.75;17.10;;;;;;;0.72;100.00;101877.56;5087413;28;20038;-71
2023/12/03 10:52:23;;;;;;;30.33;16.70;;;;;;;0.80;100.00;101872.03;5082572;28;20029;-69
2023/12/03 10:54:48;;;;;;;30.25;16.30;;;;;;;0.94;100.00;101874.56;5087370;28;20085;-69
2023/12/03 10:57:15;;;;;;;29.77;16.15;;;;;;;1.14;100.00;101866.22;5084862;28;20024;-72